sensor_id;sensor_type;location;lat;lon;timestamp;P1;durP1;ratioP1;P2;durP2;ratioP2
12814;SDS011;6472;52.328;13.070;2024-02-04T00:00:11;6.43;;;1.70;;
12814;SDS011;6472;52.328;13.070;2024-02-04T00:02:39;4.53;;;2.13;;
12814;SDS011;6472;52.328;13.070;2024-02-04T00:05:09;10.83;;;2.07;;
12814;SDS011;6472;52.328;13.070;2024-02-04T00:07:37;5.67;;;2.07;;
12814;SDS011;6472;52.328;13.070;2024-02-04T00:10:05;8.60;;;1.80;;
12814;SDS011;6472;52.328;13.070;2024-02-04T00:12:34;13.50;;;2.63;;
12814;SDS011;6472;52.328;13.070;2024-02-04T00:15:02;6.67;;;2.33;;
12814;SDS011;6472;52.328;13.070;2024-02-04T00:17:31;6.17;;;2.43;;
12814;SDS011;6472;52.328;13.070;2024-02-04T00:20:00;3.93;;;2.07;;
12814;SDS011;6472;52.328;13.070;2024-02-04T00:22:31;4.97;;;2.30;;
12814;SDS011;6472;52.328;13.070;2024-02-04T00:25:00;6.93;;;2.37;;
12814;SDS011;6472;52.328;13.070;2024-02-04T00:27:32;4.60;;;2.17;;
12814;SDS011;6472;52.328;13.070;2024-02-04T00:30:00;5.37;;;2.80;;
12814;SDS011;6472;52.328;13.070;2024-02-04T00:32:28;7.37;;;1.90;;
12814;SDS011;6472;52.328;13.070;2024-02-04T00:34:57;4.33;;;2.00;;
12814;SDS011;6472;52.328;13.070;2024-02-04T00:37:25;6.10;;;2.10;;
12814;SDS011;6472;52.328;13.070;2024-02-04T00:39:54;13.20;;;2.70;;
12814;SDS011;6472;52.328;13.070;2024-02-04T00:42:22;5.70;;;1.77;;
12814;SDS011;6472;52.328;13.070;2024-02-04T00:44:50;3.50;;;1.90;;
12814;SDS011;6472;52.328;13.070;2024-02-04T00:47:18;9.93;;;2.73;;
12814;SDS011;6472;52.328;13.070;2024-02-04T00:49:46;6.10;;;1.80;;
12814;SDS011;6472;52.328;13.070;2024-02-04T00:52:14;5.60;;;1.90;;
12814;SDS011;6472;52.328;13.070;2024-02-04T00:54:42;4.93;;;1.53;;
12814;SDS011;6472;52.328;13.070;2024-02-04T00:57:11;3.77;;;2.10;;
12814;SDS011;6472;52.328;13.070;2024-02-04T00:59:39;6.33;;;2.80;;
12814;SDS011;6472;52.328;13.070;2024-02-04T01:02:07;7.93;;;2.33;;
12814;SDS011;6472;52.328;13.070;2024-02-04T01:04:35;6.73;;;1.70;;
12814;SDS011;6472;52.328;13.070;2024-02-04T01:07:03;5.10;;;1.93;;
12814;SDS011;6472;52.328;13.070;2024-02-04T01:09:31;4.43;;;1.90;;
12814;SDS011;6472;52.328;13.070;2024-02-04T01:11:59;5.23;;;1.87;;
12814;SDS011;6472;52.328;13.070;2024-02-04T01:14:28;10.20;;;1.93;;
12814;SDS011;6472;52.328;13.070;2024-02-04T01:16:56;6.40;;;2.17;;
12814;SDS011;6472;52.328;13.070;2024-02-04T01:19:25;5.37;;;1.70;;
12814;SDS011;6472;52.328;13.070;2024-02-04T01:21:53;7.83;;;1.93;;
12814;SDS011;6472;52.328;13.070;2024-02-04T01:24:21;5.83;;;2.47;;
12814;SDS011;6472;52.328;13.070;2024-02-04T01:26:49;7.80;;;1.73;;
12814;SDS011;6472;52.328;13.070;2024-02-04T01:29:17;7.10;;;1.80;;
12814;SDS011;6472;52.328;13.070;2024-02-04T01:31:46;5.17;;;1.70;;
12814;SDS011;6472;52.328;13.070;2024-02-04T01:34:14;7.33;;;1.33;;
12814;SDS011;6472;52.328;13.070;2024-02-04T01:36:43;12.70;;;1.93;;
12814;SDS011;6472;52.328;13.070;2024-02-04T01:39:11;8.47;;;1.60;;
12814;SDS011;6472;52.328;13.070;2024-02-04T01:41:39;4.70;;;1.97;;
12814;SDS011;6472;52.328;13.070;2024-02-04T01:44:07;6.17;;;1.57;;
12814;SDS011;6472;52.328;13.070;2024-02-04T01:46:34;6.23;;;1.40;;
12814;SDS011;6472;52.328;13.070;2024-02-04T01:49:04;4.47;;;2.13;;
12814;SDS011;6472;52.328;13.070;2024-02-04T01:51:32;8.13;;;2.07;;
12814;SDS011;6472;52.328;13.070;2024-02-04T01:54:00;7.63;;;2.20;;
12814;SDS011;6472;52.328;13.070;2024-02-04T01:56:29;4.77;;;2.07;;
12814;SDS011;6472;52.328;13.070;2024-02-04T01:58:58;5.87;;;1.57;;
12814;SDS011;6472;52.328;13.070;2024-02-04T02:01:26;4.97;;;1.67;;
12814;SDS011;6472;52.328;13.070;2024-02-04T02:03:55;16.13;;;3.10;;
12814;SDS011;6472;52.328;13.070;2024-02-04T02:06:25;7.43;;;2.30;;
12814;SDS011;6472;52.328;13.070;2024-02-04T02:08:54;9.07;;;2.17;;
12814;SDS011;6472;52.328;13.070;2024-02-04T02:11:27;5.43;;;2.10;;
12814;SDS011;6472;52.328;13.070;2024-02-04T02:14:03;8.97;;;1.90;;
12814;SDS011;6472;52.328;13.070;2024-02-04T02:16:34;8.33;;;1.93;;
12814;SDS011;6472;52.328;13.070;2024-02-04T02:19:03;10.97;;;2.07;;
12814;SDS011;6472;52.328;13.070;2024-02-04T02:21:47;13.03;;;2.80;;
12814;SDS011;6472;52.328;13.070;2024-02-04T02:24:30;8.07;;;2.30;;
12814;SDS011;6472;52.328;13.070;2024-02-04T02:27:00;8.37;;;2.23;;
12814;SDS011;6472;52.328;13.070;2024-02-04T02:29:28;5.13;;;2.03;;
12814;SDS011;6472;52.328;13.070;2024-02-04T02:31:56;4.57;;;2.10;;
12814;SDS011;6472;52.328;13.070;2024-02-04T02:34:24;8.10;;;2.63;;
12814;SDS011;6472;52.328;13.070;2024-02-04T02:37:07;6.60;;;2.03;;
12814;SDS011;6472;52.328;13.070;2024-02-04T02:39:42;3.07;;;2.07;;
12814;SDS011;6472;52.328;13.070;2024-02-04T02:42:16;5.33;;;2.73;;
12814;SDS011;6472;52.328;13.070;2024-02-04T02:44:45;3.93;;;2.10;;
12814;SDS011;6472;52.328;13.070;2024-02-04T02:47:14;3.33;;;1.67;;
12814;SDS011;6472;52.328;13.070;2024-02-04T02:49:44;6.07;;;2.00;;
12814;SDS011;6472;52.328;13.070;2024-02-04T02:52:12;4.73;;;2.27;;
12814;SDS011;6472;52.328;13.070;2024-02-04T02:54:41;7.37;;;2.80;;
12814;SDS011;6472;52.328;13.070;2024-02-04T02:57:09;10.03;;;2.77;;
12814;SDS011;6472;52.328;13.070;2024-02-04T02:59:37;8.70;;;2.40;;
12814;SDS011;6472;52.328;13.070;2024-02-04T03:02:05;6.20;;;2.97;;
12814;SDS011;6472;52.328;13.070;2024-02-04T03:04:33;5.40;;;2.07;;
12814;SDS011;6472;52.328;13.070;2024-02-04T03:07:02;4.50;;;2.10;;
12814;SDS011;6472;52.328;13.070;2024-02-04T03:09:30;4.90;;;2.27;;
12814;SDS011;6472;52.328;13.070;2024-02-04T03:12:00;3.97;;;2.60;;
12814;SDS011;6472;52.328;13.070;2024-02-04T03:14:28;9.07;;;2.70;;
12814;SDS011;6472;52.328;13.070;2024-02-04T03:16:56;5.20;;;2.43;;
12814;SDS011;6472;52.328;13.070;2024-02-04T03:19:24;5.90;;;2.13;;
12814;SDS011;6472;52.328;13.070;2024-02-04T03:21:52;8.27;;;2.33;;
12814;SDS011;6472;52.328;13.070;2024-02-04T03:24:20;7.53;;;2.97;;
12814;SDS011;6472;52.328;13.070;2024-02-04T03:26:48;8.10;;;3.13;;
12814;SDS011;6472;52.328;13.070;2024-02-04T03:29:17;8.10;;;2.37;;
12814;SDS011;6472;52.328;13.070;2024-02-04T03:31:45;11.63;;;2.60;;
12814;SDS011;6472;52.328;13.070;2024-02-04T03:34:13;6.07;;;2.47;;
12814;SDS011;6472;52.328;13.070;2024-02-04T03:36:41;8.30;;;2.87;;
12814;SDS011;6472;52.328;13.070;2024-02-04T03:39:09;8.80;;;2.63;;
12814;SDS011;6472;52.328;13.070;2024-02-04T03:41:37;5.80;;;2.40;;
12814;SDS011;6472;52.328;13.070;2024-02-04T03:44:06;7.07;;;2.37;;
12814;SDS011;6472;52.328;13.070;2024-02-04T03:46:35;6.17;;;2.77;;
12814;SDS011;6472;52.328;13.070;2024-02-04T03:49:06;8.73;;;2.20;;
12814;SDS011;6472;52.328;13.070;2024-02-04T03:51:35;8.17;;;2.70;;
12814;SDS011;6472;52.328;13.070;2024-02-04T03:54:03;6.37;;;2.20;;
12814;SDS011;6472;52.328;13.070;2024-02-04T03:56:31;10.10;;;2.80;;
12814;SDS011;6472;52.328;13.070;2024-02-04T03:58:59;10.93;;;2.10;;
12814;SDS011;6472;52.328;13.070;2024-02-04T04:01:27;5.70;;;2.33;;
12814;SDS011;6472;52.328;13.070;2024-02-04T04:03:56;2.20;;;1.90;;
12814;SDS011;6472;52.328;13.070;2024-02-04T04:06:24;9.00;;;2.77;;
12814;SDS011;6472;52.328;13.070;2024-02-04T04:08:53;3.43;;;1.60;;
12814;SDS011;6472;52.328;13.070;2024-02-04T04:11:21;4.23;;;1.60;;
12814;SDS011;6472;52.328;13.070;2024-02-04T04:13:49;4.20;;;2.03;;
12814;SDS011;6472;52.328;13.070;2024-02-04T04:16:20;3.87;;;2.17;;
12814;SDS011;6472;52.328;13.070;2024-02-04T04:18:48;4.90;;;2.07;;
12814;SDS011;6472;52.328;13.070;2024-02-04T04:21:18;6.00;;;2.20;;
12814;SDS011;6472;52.328;13.070;2024-02-04T04:23:46;7.20;;;2.00;;
12814;SDS011;6472;52.328;13.070;2024-02-04T04:26:14;7.43;;;2.13;;
12814;SDS011;6472;52.328;13.070;2024-02-04T04:28:42;3.13;;;2.07;;
12814;SDS011;6472;52.328;13.070;2024-02-04T04:31:10;8.73;;;1.77;;
12814;SDS011;6472;52.328;13.070;2024-02-04T04:33:38;4.60;;;2.20;;
12814;SDS011;6472;52.328;13.070;2024-02-04T04:36:06;4.27;;;1.37;;
12814;SDS011;6472;52.328;13.070;2024-02-04T04:38:36;7.70;;;1.70;;
12814;SDS011;6472;52.328;13.070;2024-02-04T04:41:04;7.67;;;2.20;;
12814;SDS011;6472;52.328;13.070;2024-02-04T04:43:36;7.57;;;1.77;;
12814;SDS011;6472;52.328;13.070;2024-02-04T04:46:04;2.67;;;1.83;;
12814;SDS011;6472;52.328;13.070;2024-02-04T04:48:32;4.97;;;2.03;;
12814;SDS011;6472;52.328;13.070;2024-02-04T04:51:01;5.00;;;2.10;;
12814;SDS011;6472;52.328;13.070;2024-02-04T04:53:29;3.63;;;1.57;;
12814;SDS011;6472;52.328;13.070;2024-02-04T04:55:58;2.30;;;2.00;;
12814;SDS011;6472;52.328;13.070;2024-02-04T04:58:26;8.17;;;2.37;;
12814;SDS011;6472;52.328;13.070;2024-02-04T05:00:54;4.90;;;2.03;;
12814;SDS011;6472;52.328;13.070;2024-02-04T05:03:22;5.93;;;2.17;;
12814;SDS011;6472;52.328;13.070;2024-02-04T05:05:51;3.60;;;2.27;;
12814;SDS011;6472;52.328;13.070;2024-02-04T05:08:19;6.17;;;2.37;;
12814;SDS011;6472;52.328;13.070;2024-02-04T05:10:47;4.53;;;2.13;;
12814;SDS011;6472;52.328;13.070;2024-02-04T05:13:16;2.83;;;2.17;;
12814;SDS011;6472;52.328;13.070;2024-02-04T05:15:44;5.67;;;2.40;;
12814;SDS011;6472;52.328;13.070;2024-02-04T05:18:12;3.77;;;2.50;;
12814;SDS011;6472;52.328;13.070;2024-02-04T05:20:40;6.23;;;2.43;;
12814;SDS011;6472;52.328;13.070;2024-02-04T05:23:09;5.30;;;2.53;;
12814;SDS011;6472;52.328;13.070;2024-02-04T05:25:37;5.47;;;3.30;;
12814;SDS011;6472;52.328;13.070;2024-02-04T05:28:06;9.53;;;3.07;;
12814;SDS011;6472;52.328;13.070;2024-02-04T05:30:35;8.40;;;3.33;;
12814;SDS011;6472;52.328;13.070;2024-02-04T05:33:03;10.03;;;2.63;;
12814;SDS011;6472;52.328;13.070;2024-02-04T05:35:32;5.87;;;2.50;;
12814;SDS011;6472;52.328;13.070;2024-02-04T05:38:02;7.90;;;3.40;;
12814;SDS011;6472;52.328;13.070;2024-02-04T05:40:30;6.23;;;2.90;;
12814;SDS011;6472;52.328;13.070;2024-02-04T05:42:59;5.93;;;3.40;;
12814;SDS011;6472;52.328;13.070;2024-02-04T05:45:36;3.90;;;2.73;;
12814;SDS011;6472;52.328;13.070;2024-02-04T05:48:05;6.50;;;3.50;;
12814;SDS011;6472;52.328;13.070;2024-02-04T05:50:33;7.90;;;3.33;;
12814;SDS011;6472;52.328;13.070;2024-02-04T05:53:01;7.30;;;3.43;;
12814;SDS011;6472;52.328;13.070;2024-02-04T05:55:30;8.03;;;3.13;;
12814;SDS011;6472;52.328;13.070;2024-02-04T05:57:58;5.27;;;3.23;;
12814;SDS011;6472;52.328;13.070;2024-02-04T06:00:26;8.00;;;3.00;;
12814;SDS011;6472;52.328;13.070;2024-02-04T06:02:55;9.67;;;3.20;;
12814;SDS011;6472;52.328;13.070;2024-02-04T06:05:23;5.20;;;2.97;;
12814;SDS011;6472;52.328;13.070;2024-02-04T06:07:51;5.43;;;2.50;;
12814;SDS011;6472;52.328;13.070;2024-02-04T06:10:19;5.30;;;2.60;;
12814;SDS011;6472;52.328;13.070;2024-02-04T06:12:48;8.70;;;3.33;;
12814;SDS011;6472;52.328;13.070;2024-02-04T06:15:16;4.80;;;2.73;;
12814;SDS011;6472;52.328;13.070;2024-02-04T06:17:47;6.93;;;4.30;;
12814;SDS011;6472;52.328;13.070;2024-02-04T06:20:16;5.60;;;2.90;;
12814;SDS011;6472;52.328;13.070;2024-02-04T06:22:44;5.13;;;3.00;;
12814;SDS011;6472;52.328;13.070;2024-02-04T06:25:12;8.70;;;3.47;;
12814;SDS011;6472;52.328;13.070;2024-02-04T06:27:41;8.60;;;3.47;;
12814;SDS011;6472;52.328;13.070;2024-02-04T06:30:09;6.93;;;3.67;;
12814;SDS011;6472;52.328;13.070;2024-02-04T06:32:38;12.00;;;4.30;;
12814;SDS011;6472;52.328;13.070;2024-02-04T06:35:06;7.13;;;3.77;;
12814;SDS011;6472;52.328;13.070;2024-02-04T06:37:36;7.83;;;3.73;;
12814;SDS011;6472;52.328;13.070;2024-02-04T06:40:04;6.63;;;4.43;;
12814;SDS011;6472;52.328;13.070;2024-02-04T06:42:34;5.57;;;3.93;;
12814;SDS011;6472;52.328;13.070;2024-02-04T06:45:02;8.17;;;3.40;;
12814;SDS011;6472;52.328;13.070;2024-02-04T06:47:30;8.73;;;3.90;;
12814;SDS011;6472;52.328;13.070;2024-02-04T06:49:58;9.30;;;4.60;;
12814;SDS011;6472;52.328;13.070;2024-02-04T06:52:29;5.93;;;4.43;;
12814;SDS011;6472;52.328;13.070;2024-02-04T06:54:58;10.53;;;4.83;;
12814;SDS011;6472;52.328;13.070;2024-02-04T06:57:27;9.37;;;4.77;;
12814;SDS011;6472;52.328;13.070;2024-02-04T06:59:54;8.53;;;4.70;;
12814;SDS011;6472;52.328;13.070;2024-02-04T07:02:22;7.97;;;3.80;;
12814;SDS011;6472;52.328;13.070;2024-02-04T07:04:50;6.60;;;4.47;;
12814;SDS011;6472;52.328;13.070;2024-02-04T07:07:20;12.07;;;4.70;;
12814;SDS011;6472;52.328;13.070;2024-02-04T07:09:48;11.53;;;5.03;;
12814;SDS011;6472;52.328;13.070;2024-02-04T07:12:17;10.30;;;4.43;;
12814;SDS011;6472;52.328;13.070;2024-02-04T07:14:46;7.83;;;4.53;;
12814;SDS011;6472;52.328;13.070;2024-02-04T07:17:14;12.80;;;4.47;;
12814;SDS011;6472;52.328;13.070;2024-02-04T07:19:42;10.60;;;3.93;;
12814;SDS011;6472;52.328;13.070;2024-02-04T07:22:10;9.47;;;3.93;;
12814;SDS011;6472;52.328;13.070;2024-02-04T07:24:38;10.40;;;3.57;;
12814;SDS011;6472;52.328;13.070;2024-02-04T07:27:06;11.67;;;4.03;;
12814;SDS011;6472;52.328;13.070;2024-02-04T07:29:36;9.70;;;3.57;;
12814;SDS011;6472;52.328;13.070;2024-02-04T07:32:04;13.37;;;5.27;;
12814;SDS011;6472;52.328;13.070;2024-02-04T07:34:32;5.47;;;3.63;;
12814;SDS011;6472;52.328;13.070;2024-02-04T07:37:00;6.27;;;4.13;;
12814;SDS011;6472;52.328;13.070;2024-02-04T07:39:28;11.10;;;3.80;;
12814;SDS011;6472;52.328;13.070;2024-02-04T07:41:58;8.13;;;3.80;;
12814;SDS011;6472;52.328;13.070;2024-02-04T07:44:27;6.27;;;3.23;;
12814;SDS011;6472;52.328;13.070;2024-02-04T07:46:57;14.77;;;3.77;;
12814;SDS011;6472;52.328;13.070;2024-02-04T07:49:25;7.73;;;3.37;;
12814;SDS011;6472;52.328;13.070;2024-02-04T07:51:53;6.70;;;3.83;;
12814;SDS011;6472;52.328;13.070;2024-02-04T07:54:21;13.03;;;3.87;;
12814;SDS011;6472;52.328;13.070;2024-02-04T07:56:49;7.77;;;3.03;;
12814;SDS011;6472;52.328;13.070;2024-02-04T07:59:17;6.47;;;3.03;;
12814;SDS011;6472;52.328;13.070;2024-02-04T08:01:46;9.33;;;2.90;;
12814;SDS011;6472;52.328;13.070;2024-02-04T08:04:15;12.77;;;3.90;;
12814;SDS011;6472;52.328;13.070;2024-02-04T08:06:43;4.60;;;2.57;;
12814;SDS011;6472;52.328;13.070;2024-02-04T08:09:11;6.50;;;3.03;;
12814;SDS011;6472;52.328;13.070;2024-02-04T08:14:25;4.60;;;2.83;;
12814;SDS011;6472;52.328;13.070;2024-02-04T08:16:53;9.73;;;3.47;;
12814;SDS011;6472;52.328;13.070;2024-02-04T08:19:23;8.07;;;3.07;;
12814;SDS011;6472;52.328;13.070;2024-02-04T08:21:51;4.93;;;2.53;;
12814;SDS011;6472;52.328;13.070;2024-02-04T08:24:19;6.27;;;3.10;;
12814;SDS011;6472;52.328;13.070;2024-02-04T08:26:47;7.23;;;2.67;;
12814;SDS011;6472;52.328;13.070;2024-02-04T08:29:15;3.50;;;1.67;;
12814;SDS011;6472;52.328;13.070;2024-02-04T08:31:43;6.67;;;2.60;;
12814;SDS011;6472;52.328;13.070;2024-02-04T08:34:11;7.80;;;2.57;;
12814;SDS011;6472;52.328;13.070;2024-02-04T08:36:41;4.77;;;1.73;;
12814;SDS011;6472;52.328;13.070;2024-02-04T08:39:09;5.77;;;2.10;;
12814;SDS011;6472;52.328;13.070;2024-02-04T08:41:37;7.70;;;2.23;;
12814;SDS011;6472;52.328;13.070;2024-02-04T08:44:05;4.63;;;1.77;;
12814;SDS011;6472;52.328;13.070;2024-02-04T08:46:36;3.20;;;1.73;;
12814;SDS011;6472;52.328;13.070;2024-02-04T08:49:04;4.50;;;1.93;;
12814;SDS011;6472;52.328;13.070;2024-02-04T08:51:32;3.70;;;1.50;;
12814;SDS011;6472;52.328;13.070;2024-02-04T08:54:01;1.97;;;1.33;;
12814;SDS011;6472;52.328;13.070;2024-02-04T08:56:30;10.13;;;1.63;;
12814;SDS011;6472;52.328;13.070;2024-02-04T08:58:58;5.00;;;2.40;;
12814;SDS011;6472;52.328;13.070;2024-02-04T09:01:28;3.93;;;1.43;;
12814;SDS011;6472;52.328;13.070;2024-02-04T09:03:56;5.87;;;2.03;;
12814;SDS011;6472;52.328;13.070;2024-02-04T09:06:24;7.67;;;2.33;;
12814;SDS011;6472;52.328;13.070;2024-02-04T09:08:52;6.47;;;1.60;;
12814;SDS011;6472;52.328;13.070;2024-02-04T09:11:21;3.87;;;1.33;;
12814;SDS011;6472;52.328;13.070;2024-02-04T09:13:50;3.57;;;1.50;;
12814;SDS011;6472;52.328;13.070;2024-02-04T09:16:19;6.87;;;1.47;;
12814;SDS011;6472;52.328;13.070;2024-02-04T09:18:47;7.73;;;1.80;;
12814;SDS011;6472;52.328;13.070;2024-02-04T09:21:15;4.67;;;1.83;;
12814;SDS011;6472;52.328;13.070;2024-02-04T09:23:44;9.70;;;2.10;;
12814;SDS011;6472;52.328;13.070;2024-02-04T09:26:12;5.30;;;1.97;;
12814;SDS011;6472;52.328;13.070;2024-02-04T09:28:46;1.67;;;1.37;;
12814;SDS011;6472;52.328;13.070;2024-02-04T09:31:14;6.97;;;3.53;;
12814;SDS011;6472;52.328;13.070;2024-02-04T09:33:43;9.43;;;2.17;;
12814;SDS011;6472;52.328;13.070;2024-02-04T09:36:11;7.97;;;3.30;;
12814;SDS011;6472;52.328;13.070;2024-02-04T09:38:42;8.13;;;2.43;;
12814;SDS011;6472;52.328;13.070;2024-02-04T09:41:10;13.70;;;2.10;;
12814;SDS011;6472;52.328;13.070;2024-02-04T09:43:39;4.80;;;1.57;;
12814;SDS011;6472;52.328;13.070;2024-02-04T09:46:10;2.30;;;1.50;;
12814;SDS011;6472;52.328;13.070;2024-02-04T09:48:38;18.10;;;8.73;;
12814;SDS011;6472;52.328;13.070;2024-02-04T09:51:08;8.90;;;4.17;;
12814;SDS011;6472;52.328;13.070;2024-02-04T09:53:36;5.67;;;2.30;;
12814;SDS011;6472;52.328;13.070;2024-02-04T09:56:10;3.43;;;1.50;;
12814;SDS011;6472;52.328;13.070;2024-02-04T09:58:42;10.10;;;1.47;;
12814;SDS011;6472;52.328;13.070;2024-02-04T10:01:12;5.43;;;1.47;;
12814;SDS011;6472;52.328;13.070;2024-02-04T10:03:42;5.10;;;1.67;;
12814;SDS011;6472;52.328;13.070;2024-02-04T10:06:10;6.17;;;1.47;;
12814;SDS011;6472;52.328;13.070;2024-02-04T10:08:38;5.50;;;1.57;;
12814;SDS011;6472;52.328;13.070;2024-02-04T10:11:07;6.97;;;2.33;;
12814;SDS011;6472;52.328;13.070;2024-02-04T10:13:41;6.73;;;1.33;;
12814;SDS011;6472;52.328;13.070;2024-02-04T10:16:12;5.83;;;1.53;;
12814;SDS011;6472;52.328;13.070;2024-02-04T10:18:41;8.47;;;2.03;;
12814;SDS011;6472;52.328;13.070;2024-02-04T10:21:16;2.60;;;1.60;;
12814;SDS011;6472;52.328;13.070;2024-02-04T10:23:46;4.60;;;1.90;;
12814;SDS011;6472;52.328;13.070;2024-02-04T10:26:14;5.83;;;1.97;;
12814;SDS011;6472;52.328;13.070;2024-02-04T10:28:44;7.70;;;4.97;;
12814;SDS011;6472;52.328;13.070;2024-02-04T10:31:15;5.43;;;2.07;;
12814;SDS011;6472;52.328;13.070;2024-02-04T10:33:43;3.03;;;1.77;;
12814;SDS011;6472;52.328;13.070;2024-02-04T10:36:12;5.43;;;1.97;;
12814;SDS011;6472;52.328;13.070;2024-02-04T10:38:40;5.93;;;1.87;;
12814;SDS011;6472;52.328;13.070;2024-02-04T10:41:08;2.90;;;2.53;;
12814;SDS011;6472;52.328;13.070;2024-02-04T10:43:42;6.77;;;2.37;;
12814;SDS011;6472;52.328;13.070;2024-02-04T10:46:12;4.23;;;1.60;;
12814;SDS011;6472;52.328;13.070;2024-02-04T10:48:45;7.20;;;1.60;;
12814;SDS011;6472;52.328;13.070;2024-02-04T10:51:19;3.10;;;1.30;;
12814;SDS011;6472;52.328;13.070;2024-02-04T10:53:53;3.30;;;1.40;;
12814;SDS011;6472;52.328;13.070;2024-02-04T10:56:25;2.83;;;1.40;;
12814;SDS011;6472;52.328;13.070;2024-02-04T10:58:57;5.23;;;1.53;;
12814;SDS011;6472;52.328;13.070;2024-02-04T11:01:28;2.10;;;1.30;;
12814;SDS011;6472;52.328;13.070;2024-02-04T11:03:56;6.07;;;1.77;;
12814;SDS011;6472;52.328;13.070;2024-02-04T11:06:26;4.83;;;1.50;;
12814;SDS011;6472;52.328;13.070;2024-02-04T11:08:55;5.57;;;1.53;;
12814;SDS011;6472;52.328;13.070;2024-02-04T11:11:24;1.53;;;1.37;;
12814;SDS011;6472;52.328;13.070;2024-02-04T11:13:54;5.27;;;1.70;;
12814;SDS011;6472;52.328;13.070;2024-02-04T11:16:31;3.60;;;1.30;;
12814;SDS011;6472;52.328;13.070;2024-02-04T11:19:17;3.33;;;1.60;;
12814;SDS011;6472;52.328;13.070;2024-02-04T11:22:11;5.43;;;2.10;;
12814;SDS011;6472;52.328;13.070;2024-02-04T11:24:53;3.40;;;1.73;;
12814;SDS011;6472;52.328;13.070;2024-02-04T11:27:40;3.80;;;1.50;;
12814;SDS011;6472;52.328;13.070;2024-02-04T11:30:08;3.37;;;1.50;;
12814;SDS011;6472;52.328;13.070;2024-02-04T11:32:38;3.60;;;1.37;;
12814;SDS011;6472;52.328;13.070;2024-02-04T11:35:07;5.73;;;1.30;;
12814;SDS011;6472;52.328;13.070;2024-02-04T11:37:38;2.73;;;1.00;;
12814;SDS011;6472;52.328;13.070;2024-02-04T11:40:13;3.80;;;1.23;;
12814;SDS011;6472;52.328;13.070;2024-02-04T11:42:42;6.63;;;1.50;;
12814;SDS011;6472;52.328;13.070;2024-02-04T11:45:11;1.90;;;1.20;;
12814;SDS011;6472;52.328;13.070;2024-02-04T11:47:42;9.43;;;1.37;;
12814;SDS011;6472;52.328;13.070;2024-02-04T11:50:10;3.13;;;1.20;;
12814;SDS011;6472;52.328;13.070;2024-02-04T11:52:39;3.23;;;1.40;;
12814;SDS011;6472;52.328;13.070;2024-02-04T11:55:12;4.20;;;1.10;;
12814;SDS011;6472;52.328;13.070;2024-02-04T11:57:42;4.10;;;1.33;;
12814;SDS011;6472;52.328;13.070;2024-02-04T12:00:10;7.23;;;1.70;;
12814;SDS011;6472;52.328;13.070;2024-02-04T12:02:39;1.97;;;0.93;;
12814;SDS011;6472;52.328;13.070;2024-02-04T12:05:08;1.97;;;1.13;;
12814;SDS011;6472;52.328;13.070;2024-02-04T12:07:37;3.57;;;1.20;;
12814;SDS011;6472;52.328;13.070;2024-02-04T12:10:09;3.93;;;1.30;;
12814;SDS011;6472;52.328;13.070;2024-02-04T12:12:38;1.93;;;0.93;;
12814;SDS011;6472;52.328;13.070;2024-02-04T12:15:07;6.00;;;1.03;;
12814;SDS011;6472;52.328;13.070;2024-02-04T12:17:36;3.20;;;1.07;;
12814;SDS011;6472;52.328;13.070;2024-02-04T12:20:05;3.70;;;1.20;;
12814;SDS011;6472;52.328;13.070;2024-02-04T12:22:35;2.43;;;1.13;;
12814;SDS011;6472;52.328;13.070;2024-02-04T12:25:04;5.07;;;1.70;;
12814;SDS011;6472;52.328;13.070;2024-02-04T12:27:34;5.00;;;1.50;;
12814;SDS011;6472;52.328;13.070;2024-02-04T12:30:03;3.30;;;1.10;;
12814;SDS011;6472;52.328;13.070;2024-02-04T12:32:33;3.03;;;1.50;;
12814;SDS011;6472;52.328;13.070;2024-02-04T12:35:05;1.43;;;0.73;;
12814;SDS011;6472;52.328;13.070;2024-02-04T12:37:37;6.03;;;1.20;;
12814;SDS011;6472;52.328;13.070;2024-02-04T12:40:05;1.90;;;1.13;;
12814;SDS011;6472;52.328;13.070;2024-02-04T12:42:35;8.90;;;1.40;;
12814;SDS011;6472;52.328;13.070;2024-02-04T12:45:03;3.67;;;1.30;;
12814;SDS011;6472;52.328;13.070;2024-02-04T12:47:32;1.43;;;0.90;;
12814;SDS011;6472;52.328;13.070;2024-02-04T12:50:00;6.33;;;1.10;;
12814;SDS011;6472;52.328;13.070;2024-02-04T12:52:29;3.37;;;0.93;;
12814;SDS011;6472;52.328;13.070;2024-02-04T12:55:02;4.60;;;1.30;;
12814;SDS011;6472;52.328;13.070;2024-02-04T12:57:31;4.97;;;1.40;;
12814;SDS011;6472;52.328;13.070;2024-02-04T13:00:06;2.27;;;1.00;;
12814;SDS011;6472;52.328;13.070;2024-02-04T13:02:36;6.27;;;1.47;;
12814;SDS011;6472;52.328;13.070;2024-02-04T13:05:05;3.27;;;1.73;;
12814;SDS011;6472;52.328;13.070;2024-02-04T13:07:34;6.13;;;2.00;;
12814;SDS011;6472;52.328;13.070;2024-02-04T13:10:04;4.27;;;1.53;;
12814;SDS011;6472;52.328;13.070;2024-02-04T13:12:33;9.80;;;1.30;;
12814;SDS011;6472;52.328;13.070;2024-02-04T13:15:01;3.57;;;1.10;;
12814;SDS011;6472;52.328;13.070;2024-02-04T13:17:30;2.70;;;1.20;;
12814;SDS011;6472;52.328;13.070;2024-02-04T13:19:58;6.07;;;1.70;;
12814;SDS011;6472;52.328;13.070;2024-02-04T13:22:26;3.63;;;1.50;;
12814;SDS011;6472;52.328;13.070;2024-02-04T13:24:54;0.93;;;0.80;;
12814;SDS011;6472;52.328;13.070;2024-02-04T13:27:24;5.53;;;1.50;;
12814;SDS011;6472;52.328;13.070;2024-02-04T13:29:52;2.33;;;1.20;;
12814;SDS011;6472;52.328;13.070;2024-02-04T13:32:20;5.43;;;1.70;;
12814;SDS011;6472;52.328;13.070;2024-02-04T13:34:49;3.10;;;1.60;;
12814;SDS011;6472;52.328;13.070;2024-02-04T13:37:35;7.90;;;2.40;;
12814;SDS011;6472;52.328;13.070;2024-02-04T13:40:04;5.17;;;1.90;;
12814;SDS011;6472;52.328;13.070;2024-02-04T13:42:34;2.13;;;1.13;;
12814;SDS011;6472;52.328;13.070;2024-02-04T13:45:03;3.73;;;1.70;;
12814;SDS011;6472;52.328;13.070;2024-02-04T13:47:32;4.80;;;1.77;;
12814;SDS011;6472;52.328;13.070;2024-02-04T13:50:00;2.77;;;1.50;;
12814;SDS011;6472;52.328;13.070;2024-02-04T13:52:30;3.10;;;1.67;;
12814;SDS011;6472;52.328;13.070;2024-02-04T13:54:58;6.67;;;2.03;;
12814;SDS011;6472;52.328;13.070;2024-02-04T13:57:26;5.20;;;1.50;;
12814;SDS011;6472;52.328;13.070;2024-02-04T13:59:56;4.60;;;1.80;;
12814;SDS011;6472;52.328;13.070;2024-02-04T14:02:24;4.17;;;1.70;;
12814;SDS011;6472;52.328;13.070;2024-02-04T14:04:55;2.93;;;1.80;;
12814;SDS011;6472;52.328;13.070;2024-02-04T14:07:24;6.63;;;3.03;;
12814;SDS011;6472;52.328;13.070;2024-02-04T14:09:53;5.43;;;1.80;;
12814;SDS011;6472;52.328;13.070;2024-02-04T14:12:21;3.80;;;1.50;;
12814;SDS011;6472;52.328;13.070;2024-02-04T14:14:50;6.27;;;1.40;;
12814;SDS011;6472;52.328;13.070;2024-02-04T14:17:20;7.77;;;1.80;;
12814;SDS011;6472;52.328;13.070;2024-02-04T14:19:48;8.80;;;1.70;;
12814;SDS011;6472;52.328;13.070;2024-02-04T14:22:18;6.23;;;2.10;;
12814;SDS011;6472;52.328;13.070;2024-02-04T14:24:49;7.30;;;1.20;;
12814;SDS011;6472;52.328;13.070;2024-02-04T14:27:17;3.97;;;1.83;;
12814;SDS011;6472;52.328;13.070;2024-02-04T14:29:45;5.37;;;2.10;;
12814;SDS011;6472;52.328;13.070;2024-02-04T14:32:13;3.70;;;1.00;;
12814;SDS011;6472;52.328;13.070;2024-02-04T14:34:47;7.10;;;1.93;;
12814;SDS011;6472;52.328;13.070;2024-02-04T14:37:25;4.93;;;1.63;;
12814;SDS011;6472;52.328;13.070;2024-02-04T14:39:53;4.50;;;1.90;;
12814;SDS011;6472;52.328;13.070;2024-02-04T14:42:22;4.73;;;3.93;;
12814;SDS011;6472;52.328;13.070;2024-02-04T14:44:50;8.90;;;1.70;;
12814;SDS011;6472;52.328;13.070;2024-02-04T14:47:18;2.67;;;1.50;;
12814;SDS011;6472;52.328;13.070;2024-02-04T14:49:48;3.77;;;1.53;;
12814;SDS011;6472;52.328;13.070;2024-02-04T14:52:16;6.93;;;2.07;;
12814;SDS011;6472;52.328;13.070;2024-02-04T14:54:44;6.20;;;1.40;;
12814;SDS011;6472;52.328;13.070;2024-02-04T14:57:13;2.30;;;1.70;;
12814;SDS011;6472;52.328;13.070;2024-02-04T14:59:41;4.50;;;2.13;;